createdAt,value
2023-05-14T16:26:28.229Z,1018.52
2023-05-14T16:26:38.902Z,1018.52
2023-05-14T16:26:45.778Z,1018.54
2023-05-14T16:26:55.931Z,1018.46
2023-05-14T16:27:06.058Z,1018.45
2023-05-14T16:27:16.296Z,1018.45
2023-05-14T16:27:36.459Z,1018.45
2023-05-14T16:27:46.608Z,1018.43
2023-05-14T16:27:57.406Z,1018.48
2023-05-14T16:28:06.644Z,1018.46
2023-05-14T16:28:16.728Z,1018.44
2023-05-14T16:28:26.939Z,1018.43
2023-05-14T16:28:38.185Z,1018.41
2023-05-14T16:28:47.058Z,1018.43
2023-05-14T16:29:08.376Z,1018.44
2023-05-14T16:29:17.675Z,1018.40
2023-05-14T16:29:27.738Z,1018.37
2023-05-14T16:29:37.631Z,1018.37
2023-05-14T16:29:47.942Z,1018.35
2023-05-14T16:29:57.994Z,1018.34
2023-05-14T16:30:18.268Z,1018.35
2023-05-14T16:30:28.258Z,1018.34
2023-05-14T16:30:38.448Z,1018.33
2023-05-14T16:30:48.551Z,1018.29
2023-05-14T16:30:58.603Z,1018.28
2023-05-14T16:31:08.873Z,1018.24
2023-05-14T16:31:18.868Z,1018.25
2023-05-14T16:31:28.951Z,1018.24
2023-05-14T16:31:39.186Z,1018.22
2023-05-14T16:31:49.450Z,1018.22
2023-05-14T16:32:00.275Z,1018.22
2023-05-14T16:32:10.100Z,1018.23
2023-05-14T16:32:19.897Z,1018.34
2023-05-14T16:32:30.655Z,1018.39
2023-05-14T16:32:40.098Z,1018.42
2023-05-14T16:32:50.157Z,1018.49
2023-05-14T16:33:00.435Z,1018.62
2023-05-14T16:33:10.419Z,1018.67
2023-05-14T16:33:20.485Z,1018.78
2023-05-14T16:33:40.852Z,1018.94
2023-05-14T16:33:50.741Z,1019.00
2023-05-14T16:34:01.082Z,1019.03
2023-05-14T16:34:10.994Z,1019.02
2023-05-14T16:34:21.174Z,1019.05
2023-05-14T16:34:31.366Z,1019.05
2023-05-14T16:34:41.445Z,1019.11
2023-05-14T16:34:51.665Z,1019.14
2023-05-14T16:35:02.231Z,1019.15
2023-05-14T16:35:12.749Z,1019.15
2023-05-14T16:35:21.941Z,1019.18
2023-05-14T16:35:32.126Z,1019.15
2023-05-14T16:35:42.189Z,1019.11
2023-05-14T16:35:52.304Z,1019.12
2023-05-14T16:36:02.380Z,1019.13
2023-05-14T16:36:13.199Z,1019.16
2023-05-14T16:36:22.677Z,1019.20
2023-05-14T16:36:32.734Z,1019.27
2023-05-14T16:36:43.196Z,1019.31
2023-05-14T16:36:53.364Z,1019.36
2023-05-14T16:37:03.212Z,1019.34
2023-05-14T16:37:13.466Z,1019.42
2023-05-14T16:37:23.428Z,1019.43
2023-05-14T16:37:34.305Z,1019.46
2023-05-14T16:37:43.700Z,1019.45
2023-05-14T16:37:53.846Z,1019.48
2023-05-14T16:38:04.005Z,1019.45
2023-05-14T16:38:13.992Z,1019.43
2023-05-14T16:38:24.176Z,1019.53
2023-05-14T16:39:05.719Z,1019.62
2023-05-14T16:39:12.721Z,1019.63
2023-05-14T16:39:19.243Z,1019.68
2023-05-14T16:39:28.965Z,1019.69
2023-05-14T16:39:39.069Z,1019.68
2023-05-14T16:39:49.745Z,1019.74
2023-05-14T16:39:59.302Z,1019.78
2023-05-14T16:40:20.041Z,1019.80
2023-05-14T16:40:29.663Z,1019.83
2023-05-14T16:40:39.823Z,1019.80
2023-05-14T16:40:50.051Z,1019.77
2023-05-14T16:41:00.236Z,1019.79
2023-05-14T16:41:10.334Z,1019.75
2023-05-14T16:41:20.467Z,1019.77
2023-05-14T16:41:30.663Z,1019.74
2023-05-14T16:41:40.839Z,1019.73
2023-05-14T16:41:50.885Z,1019.75
2023-05-14T16:42:01.072Z,1019.72
2023-05-14T16:42:11.742Z,1019.71
2023-05-14T16:42:21.207Z,1019.74
2023-05-14T16:42:31.261Z,1019.73
2023-05-14T16:42:41.498Z,1019.71
2023-05-14T16:42:51.657Z,1019.70
2023-05-14T16:43:01.829Z,1019.66
2023-05-14T16:43:12.757Z,1019.71
2023-05-14T16:43:22.131Z,1019.68
2023-05-14T16:43:32.338Z,1019.68
2023-05-14T16:43:42.355Z,1019.67
2023-05-14T16:43:52.461Z,1019.68
2023-05-14T16:44:02.474Z,1019.65
2023-05-14T16:44:22.818Z,1019.71
2023-05-14T16:44:32.863Z,1019.70
2023-05-14T16:44:43.860Z,1019.68
2023-05-14T16:44:53.222Z,1019.70
2023-05-14T16:45:04.184Z,1019.69
2023-05-14T16:45:13.371Z,1019.68
2023-05-14T16:45:23.845Z,1019.75
2023-05-14T16:45:33.673Z,1019.73
2023-05-14T16:45:43.772Z,1019.75
2023-05-14T16:45:54.005Z,1019.77
2023-05-14T16:46:14.228Z,1019.75
2023-05-14T16:46:24.243Z,1019.80
2023-05-14T16:46:34.426Z,1019.84
2023-05-14T16:46:44.400Z,1019.90
2023-05-14T16:46:54.555Z,1019.95
2023-05-14T16:47:04.724Z,1019.98
2023-05-14T16:47:14.820Z,1019.96
2023-05-14T16:47:25.002Z,1020.04
2023-05-14T16:47:35.201Z,1020.10
2023-05-14T16:47:45.243Z,1020.11
2023-05-14T16:47:55.429Z,1020.08
2023-05-14T16:48:05.449Z,1020.12
2023-05-14T16:48:15.843Z,1020.19
2023-05-14T16:48:25.778Z,1020.17
2023-05-14T16:48:35.727Z,1020.21
2023-05-14T16:48:46.486Z,1020.16
2023-05-14T16:48:56.011Z,1020.16
2023-05-14T16:49:06.093Z,1020.17
2023-05-14T16:49:16.095Z,1020.18
2023-05-14T16:49:26.248Z,1020.16
2023-05-14T16:49:36.413Z,1020.15
2023-05-14T16:49:48.480Z,1020.18
2023-05-14T16:49:57.613Z,1020.16
2023-05-14T16:50:06.880Z,1020.12
2023-05-14T16:50:18.051Z,1020.15
2023-05-14T16:50:26.943Z,1020.17
2023-05-14T16:50:37.217Z,1020.17
2023-05-14T16:50:57.360Z,1020.19
2023-05-14T16:51:07.539Z,1020.18
2023-05-14T16:51:18.424Z,1020.18
2023-05-14T16:51:27.992Z,1020.19
2023-05-14T16:51:37.844Z,1020.22
2023-05-14T16:51:47.944Z,1020.19
2023-05-14T16:51:58.255Z,1020.21
2023-05-14T16:52:08.285Z,1020.25
2023-05-14T16:52:18.562Z,1020.26
2023-05-14T16:52:28.636Z,1020.28
2023-05-14T16:52:38.673Z,1020.27
2023-05-14T16:52:48.807Z,1020.31
2023-05-14T16:52:58.836Z,1020.27
2023-05-14T16:53:09.125Z,1020.28
2023-05-14T16:53:19.129Z,1020.25
2023-05-14T16:53:29.583Z,1020.29
2023-05-14T16:53:39.284Z,1020.29
2023-05-14T16:53:51.513Z,1020.28
2023-05-14T16:53:59.492Z,1020.26
2023-05-14T16:54:09.695Z,1020.26
2023-05-14T16:54:19.975Z,1020.24
2023-05-14T16:54:29.903Z,1020.24
2023-05-14T16:54:40.019Z,1020.25
2023-05-14T16:54:50.873Z,1020.23
2023-05-14T16:55:00.426Z,1020.25
2023-05-14T16:55:10.468Z,1020.24
2023-05-14T16:55:20.514Z,1020.21
2023-05-14T16:55:30.762Z,1020.16
2023-05-14T16:55:40.960Z,1020.15
2023-05-14T16:56:01.062Z,1020.06
2023-05-14T16:56:10.995Z,1020.00
2023-05-14T16:56:21.258Z,1019.94
2023-05-14T16:56:31.308Z,1019.88
2023-05-14T16:56:41.407Z,1019.82
2023-05-14T16:56:51.533Z,1019.84
2023-05-14T16:57:01.680Z,1019.82
2023-05-14T16:57:11.824Z,1019.71
2023-05-14T16:57:21.949Z,1019.69
2023-05-14T16:57:32.058Z,1019.63
2023-05-14T16:57:42.118Z,1019.64
2023-05-14T16:57:52.253Z,1019.56
2023-05-14T16:58:02.406Z,1019.58
2023-05-14T16:58:12.613Z,1019.51
2023-05-14T16:58:22.686Z,1019.52
2023-05-14T16:58:32.828Z,1019.55
2023-05-14T16:58:42.912Z,1019.48
2023-05-14T16:58:53.060Z,1019.49
2023-05-14T16:59:03.162Z,1019.45
2023-05-14T16:59:13.294Z,1019.43
2023-05-14T16:59:23.452Z,1019.33
2023-05-14T16:59:33.524Z,1019.32
2023-05-14T16:59:43.866Z,1019.26
2023-05-14T16:59:53.914Z,1019.19
2023-05-14T17:00:04.168Z,1019.17
2023-05-14T17:00:14.337Z,1019.12
2023-05-14T17:00:24.415Z,1019.06
2023-05-14T17:00:34.300Z,1019.00
2023-05-14T17:00:44.517Z,1019.00
2023-05-14T17:00:54.591Z,1018.99
2023-05-14T17:01:05.527Z,1019.04
2023-05-14T17:01:15.154Z,1019.05
2023-05-14T17:01:25.606Z,1019.02
2023-05-14T17:01:35.485Z,1019.02
2023-05-14T17:01:45.241Z,1019.03
2023-05-14T17:01:55.978Z,1019.02
2023-05-14T17:02:05.890Z,1019.04
2023-05-14T17:02:16.237Z,1019.04
2023-05-14T17:02:26.096Z,1019.04
2023-05-14T17:02:35.912Z,1019.03
2023-05-14T17:02:46.054Z,1019.05
2023-05-14T17:02:56.489Z,1019.04
2023-05-14T17:03:06.330Z,1019.05
2023-05-14T17:03:16.857Z,1019.01
2023-05-14T17:03:26.539Z,1019.03
2023-05-14T17:03:36.702Z,1019.03
2023-05-14T17:03:46.815Z,1019.03
2023-05-14T17:03:56.980Z,1019.01
2023-05-14T17:04:07.692Z,1018.98
2023-05-14T17:04:17.361Z,1019.01
2023-05-14T17:04:27.421Z,1018.94
2023-05-14T17:04:38.438Z,1018.95
2023-05-14T17:04:47.845Z,1018.96
2023-05-14T17:04:57.848Z,1018.93
2023-05-14T17:05:07.919Z,1018.91
2023-05-14T17:05:18.411Z,1018.92
2023-05-14T17:05:28.077Z,1018.93
2023-05-14T17:05:39.199Z,1018.89
2023-05-14T17:05:48.819Z,1018.89
2023-05-14T17:05:58.388Z,1018.89
2023-05-14T17:06:08.542Z,1018.88
2023-05-14T17:06:18.726Z,1018.91
2023-05-14T17:06:29.109Z,1018.89
2023-05-14T17:06:49.181Z,1018.84
2023-05-14T17:06:59.192Z,1018.87
2023-05-14T17:07:09.445Z,1018.86
2023-05-14T17:07:19.756Z,1018.78
2023-05-14T17:07:30.351Z,1018.78
2023-05-14T17:07:39.968Z,1018.75
2023-05-14T17:07:50.059Z,1018.76
2023-05-14T17:08:01.631Z,1018.73
2023-05-14T17:08:10.299Z,1018.78
2023-05-14T17:08:20.753Z,1018.77
2023-05-14T17:08:31.666Z,1018.70
2023-05-14T17:08:40.629Z,1018.70
2023-05-14T17:08:50.686Z,1018.63
2023-05-14T17:09:11.015Z,1018.56
2023-05-14T17:09:20.917Z,1018.46
2023-05-14T17:09:31.220Z,1018.49
2023-05-14T17:09:41.290Z,1018.46
2023-05-14T17:09:51.344Z,1018.41
2023-05-14T17:10:01.781Z,1018.34
2023-05-14T17:10:11.553Z,1018.32
2023-05-14T17:10:21.600Z,1018.25
2023-05-14T17:10:32.093Z,1018.13
2023-05-14T17:10:42.994Z,1018.12
2023-05-14T17:10:52.070Z,1018.09
2023-05-14T17:11:02.253Z,1018.04
2023-05-14T17:11:13.302Z,1017.96
2023-05-14T17:11:22.748Z,1017.90
2023-05-14T17:11:32.521Z,1017.89
2023-05-14T17:11:52.855Z,1017.95
2023-05-14T17:12:02.817Z,1017.97
2023-05-14T17:12:12.994Z,1017.96
2023-05-14T17:12:22.986Z,1017.94
2023-05-14T17:12:33.191Z,1017.98
2023-05-14T17:12:43.428Z,1017.96
2023-05-14T17:12:53.486Z,1018.01
2023-05-14T17:13:04.252Z,1018.01
2023-05-14T17:13:13.891Z,1017.97
2023-05-14T17:13:23.953Z,1017.94
2023-05-14T17:13:33.970Z,1017.94
2023-05-14T17:13:44.121Z,1017.95
2023-05-14T17:13:54.544Z,1017.93
2023-05-14T17:14:04.542Z,1017.88
2023-05-14T17:14:14.743Z,1017.83
2023-05-14T17:14:24.954Z,1017.73
2023-05-14T17:14:34.807Z,1017.68
2023-05-14T17:14:45.075Z,1017.62
2023-05-14T17:14:55.062Z,1017.58
2023-05-14T17:15:06.532Z,1017.44
2023-05-14T17:15:15.912Z,1017.46
2023-05-14T17:15:26.112Z,1017.44
2023-05-14T17:15:35.778Z,1017.43
2023-05-14T17:15:45.950Z,1017.39
2023-05-14T17:15:56.037Z,1017.38
2023-05-14T17:16:15.988Z,1017.30
2023-05-14T17:16:27.026Z,1017.29
2023-05-14T17:16:36.335Z,1017.23
2023-05-14T17:16:46.603Z,1017.07
2023-05-14T17:16:57.618Z,1017.08
2023-05-14T17:17:10.782Z,1017.10
2023-05-14T17:17:16.898Z,1017.15
2023-05-14T17:17:27.773Z,1017.16
2023-05-14T17:17:39.016Z,1017.16
2023-05-14T17:17:47.917Z,1017.13
2023-05-14T17:17:57.439Z,1017.12
2023-05-14T17:18:12.889Z,1017.10
2023-05-14T17:18:22.849Z,1017.07
2023-05-14T17:18:29.602Z,1017.03
2023-05-14T17:18:40.425Z,1016.98
2023-05-14T17:18:52.916Z,1017.04
2023-05-14T17:19:00.436Z,1017.00
2023-05-14T17:19:22.377Z,1016.91
2023-05-14T17:19:34.214Z,1016.74
2023-05-14T17:19:46.845Z,1016.64
2023-05-14T17:19:57.907Z,1016.56
2023-05-14T17:20:05.854Z,1016.47
2023-05-14T17:20:16.109Z,1016.34
2023-05-14T17:20:27.553Z,1016.23
2023-05-14T17:20:34.588Z,1016.06
2023-05-14T17:20:58.574Z,1015.86
2023-05-14T17:21:04.681Z,1015.73
2023-05-14T17:21:15.174Z,1015.66
2023-05-14T17:21:33.620Z,1015.66
2023-05-14T17:21:39.827Z,1015.72
2023-05-14T17:21:50.822Z,1015.70
2023-05-14T17:22:04.454Z,1015.68
2023-05-14T17:22:10.893Z,1015.75
2023-05-14T17:22:25.553Z,1015.87
2023-05-14T17:22:35.450Z,1016.07
2023-05-14T17:22:42.043Z,1016.18
2023-05-14T17:22:56.730Z,1016.37
2023-05-14T17:23:10.599Z,1016.52
2023-05-14T17:23:16.621Z,1016.62
2023-05-14T17:23:31.561Z,1016.76
2023-05-14T17:23:37.709Z,1016.92
2023-05-14T17:23:47.839Z,1016.99
2023-05-14T17:24:02.359Z,1017.10
2023-05-14T17:24:19.246Z,1017.24
